createdAt,value
2022-11-14T00:00:30.681Z,29.47
2022-11-14T00:03:02.566Z,26.43
2022-11-14T00:05:32.516Z,27.60
2022-11-14T00:08:02.164Z,26.67
2022-11-14T00:10:31.631Z,24.90
2022-11-14T00:13:02.443Z,23.57
2022-11-14T00:15:32.163Z,24.97
2022-11-14T00:18:03.390Z,25.57
2022-11-14T00:20:34.238Z,23.47
2022-11-14T00:23:03.756Z,23.80
2022-11-14T00:25:33.744Z,25.10
2022-11-14T00:28:04.665Z,22.83
2022-11-14T00:30:34.269Z,22.47
2022-11-14T00:33:03.530Z,22.70
2022-11-14T00:35:32.610Z,21.00
2022-11-14T00:38:02.086Z,21.33
2022-11-14T00:40:31.710Z,19.90
2022-11-14T00:43:04.690Z,20.83
2022-11-14T00:45:35.796Z,19.90
2022-11-14T00:48:05.341Z,21.63
2022-11-14T00:50:34.868Z,20.30
2022-11-14T00:53:08.467Z,18.87
2022-11-14T00:55:38.354Z,21.00
2022-11-14T00:58:08.060Z,20.60
2022-11-14T01:00:39.389Z,20.27
2022-11-14T01:03:09.112Z,20.27
2022-11-14T01:05:43.490Z,19.80
2022-11-14T01:08:13.142Z,18.57
2022-11-14T01:10:43.241Z,20.40
2022-11-14T01:13:13.051Z,19.70
2022-11-14T01:15:45.402Z,22.73
2022-11-14T01:18:16.427Z,20.53
2022-11-14T01:20:47.311Z,18.80
2022-11-14T01:23:18.180Z,20.47
2022-11-14T01:25:47.728Z,19.93
2022-11-14T01:28:19.380Z,20.57
2022-11-14T01:30:50.561Z,21.27
2022-11-14T01:33:22.599Z,20.87
2022-11-14T01:35:52.020Z,20.47
2022-11-14T01:38:21.828Z,19.80
2022-11-14T01:40:51.443Z,21.23
2022-11-14T01:43:30.427Z,23.30
2022-11-14T01:46:03.592Z,24.20
2022-11-14T01:48:37.968Z,24.10
2022-11-14T01:51:19.072Z,22.40
2022-11-14T01:53:50.072Z,21.40
2022-11-14T01:56:22.886Z,21.57
2022-11-14T01:58:57.758Z,24.00
2022-11-14T02:01:29.230Z,22.50
2022-11-14T02:03:59.873Z,21.50
2022-11-14T02:06:31.805Z,19.90
2022-11-14T02:09:03.731Z,22.50
2022-11-14T02:11:36.470Z,21.07
2022-11-14T02:14:06.626Z,21.37
2022-11-14T02:16:38.063Z,20.03
2022-11-14T02:19:08.074Z,18.83
2022-11-14T02:21:39.168Z,20.33
2022-11-14T02:24:11.250Z,20.03
2022-11-14T02:26:40.935Z,19.97
2022-11-14T02:29:11.821Z,20.70
2022-11-14T02:31:41.256Z,20.60
2022-11-14T02:34:11.218Z,20.80
2022-11-14T02:36:42.510Z,20.30
2022-11-14T02:39:12.728Z,18.00
2022-11-14T02:41:42.394Z,20.20
2022-11-14T02:44:12.024Z,19.07
2022-11-14T02:46:41.780Z,20.17
2022-11-14T02:49:11.724Z,19.13
2022-11-14T02:51:42.895Z,19.57
2022-11-14T02:54:12.549Z,18.00
2022-11-14T02:56:43.898Z,19.17
2022-11-14T02:59:13.988Z,16.27
2022-11-14T03:01:43.581Z,17.63
2022-11-14T03:04:13.308Z,17.13
2022-11-14T03:06:47.007Z,18.33
2022-11-14T03:09:16.667Z,16.13
2022-11-14T03:11:46.127Z,16.83
2022-11-14T03:14:15.612Z,16.93
2022-11-14T03:16:47.859Z,15.00
2022-11-14T03:19:17.039Z,16.07
2022-11-14T03:21:48.127Z,16.17
2022-11-14T03:24:17.601Z,17.07
2022-11-14T03:26:47.552Z,16.10
2022-11-14T03:29:17.140Z,15.40
2022-11-14T03:31:46.779Z,15.67
2022-11-14T03:34:16.284Z,17.80
2022-11-14T03:36:47.840Z,16.83
2022-11-14T03:39:17.653Z,17.67
2022-11-14T03:41:47.045Z,15.30
2022-11-14T03:44:19.122Z,18.00
2022-11-14T03:46:48.559Z,17.20
2022-11-14T03:49:18.071Z,15.47
2022-11-14T03:51:49.401Z,15.73
2022-11-14T03:54:19.053Z,16.40
2022-11-14T03:56:48.591Z,15.77
2022-11-14T03:59:18.232Z,17.07
2022-11-14T04:01:49.035Z,15.60
2022-11-14T04:04:18.674Z,14.87
2022-11-14T04:06:49.608Z,16.20
2022-11-14T04:09:19.381Z,14.50
2022-11-14T04:11:48.923Z,13.63
2022-11-14T04:14:18.589Z,16.23
2022-11-14T04:16:48.235Z,16.17
2022-11-14T04:19:23.507Z,15.97
2022-11-14T04:21:54.928Z,15.53
2022-11-14T04:25:41.243Z,14.13
2022-11-14T04:28:18.583Z,15.40
2022-11-14T04:30:48.683Z,15.47
2022-11-14T04:33:18.085Z,16.40
2022-11-14T04:35:47.347Z,14.27
2022-11-14T04:38:17.926Z,15.80
2022-11-14T04:40:51.427Z,15.47
2022-11-14T04:43:21.394Z,13.90
2022-11-14T04:45:50.739Z,13.00
2022-11-14T04:48:23.708Z,13.70
2022-11-14T04:50:53.443Z,13.80
2022-11-14T04:53:24.371Z,14.23
2022-11-14T04:55:54.289Z,14.80
2022-11-14T04:58:23.789Z,14.33
2022-11-14T05:00:53.554Z,16.03
2022-11-14T05:03:23.278Z,13.30
2022-11-14T05:05:52.892Z,14.33
2022-11-14T05:08:24.624Z,14.33
2022-11-14T05:10:56.958Z,15.07
2022-11-14T05:13:26.644Z,16.57
2022-11-14T05:15:59.467Z,16.37
2022-11-14T05:18:29.680Z,16.13
2022-11-14T05:21:00.616Z,16.30
2022-11-14T05:23:31.589Z,16.80
2022-11-14T05:26:02.886Z,17.93
2022-11-14T05:28:32.766Z,19.33
2022-11-14T05:31:06.157Z,18.97
2022-11-14T05:33:36.079Z,18.73
2022-11-14T05:36:06.536Z,20.37
2022-11-14T05:38:37.502Z,21.20
2022-11-14T05:41:08.239Z,19.67
2022-11-14T05:43:38.370Z,19.60
2022-11-14T05:46:10.699Z,19.30
2022-11-14T05:48:40.514Z,20.37
2022-11-14T05:51:11.971Z,20.47
2022-11-14T05:53:43.663Z,21.07
2022-11-14T05:56:14.690Z,19.83
2022-11-14T05:58:44.275Z,16.80
2022-11-14T06:01:14.784Z,15.00
2022-11-14T06:03:45.814Z,15.43
2022-11-14T06:06:17.169Z,16.00
2022-11-14T06:08:48.563Z,15.77
2022-11-14T06:11:19.987Z,14.30
2022-11-14T06:13:49.830Z,15.03
2022-11-14T06:16:21.016Z,14.83
2022-11-14T06:18:50.567Z,14.77
2022-11-14T06:21:22.222Z,14.77
2022-11-14T06:23:53.499Z,14.27
2022-11-14T06:26:24.623Z,15.20
2022-11-14T06:28:54.801Z,17.00
2022-11-14T06:31:25.309Z,17.03
2022-11-14T06:33:55.169Z,17.63
2022-11-14T06:36:25.038Z,19.97
2022-11-14T06:38:56.021Z,19.00
2022-11-14T06:41:25.964Z,20.03
2022-11-14T06:43:55.478Z,18.43
2022-11-14T06:46:25.574Z,18.90
2022-11-14T06:48:55.182Z,15.97
2022-11-14T06:51:24.595Z,18.40
2022-11-14T06:53:55.578Z,17.73
2022-11-14T06:56:25.401Z,15.70
2022-11-14T06:58:55.996Z,18.17
2022-11-14T07:01:27.244Z,16.10
2022-11-14T07:03:58.854Z,17.67
2022-11-14T07:06:30.078Z,20.60
2022-11-14T07:09:01.146Z,19.80
2022-11-14T07:11:32.235Z,21.17
2022-11-14T07:14:02.991Z,22.20
2022-11-14T07:16:35.087Z,20.80
2022-11-14T07:19:06.835Z,20.10
2022-11-14T07:21:36.742Z,23.13
2022-11-14T07:24:08.946Z,22.93
2022-11-14T07:26:38.781Z,21.83
2022-11-14T07:29:08.561Z,21.90
2022-11-14T07:31:38.063Z,22.60
2022-11-14T07:34:07.967Z,24.63
2022-11-14T07:36:37.418Z,25.17
2022-11-14T07:39:08.414Z,21.70
2022-11-14T07:41:38.031Z,24.60
2022-11-14T07:44:07.432Z,24.97
2022-11-14T07:46:36.947Z,24.47
2022-11-14T07:49:06.590Z,24.60
2022-11-14T07:51:36.111Z,25.63
2022-11-14T07:54:05.684Z,26.37
2022-11-14T07:56:36.820Z,25.33
2022-11-14T07:59:06.613Z,25.20
2022-11-14T08:01:36.444Z,25.03
2022-11-14T08:04:08.007Z,25.70
2022-11-14T08:06:37.929Z,23.27
2022-11-14T08:09:08.583Z,23.97
2022-11-14T08:11:52.088Z,23.97
2022-11-14T08:14:21.565Z,22.50
2022-11-14T08:17:01.840Z,20.20
2022-11-14T08:19:31.287Z,21.40
2022-11-14T08:22:00.859Z,21.73
2022-11-14T08:24:30.230Z,21.13
2022-11-14T08:27:03.630Z,20.87
2022-11-14T08:29:33.246Z,23.30
2022-11-14T08:32:02.718Z,23.23
2022-11-14T08:34:32.248Z,23.80
2022-11-14T08:37:02.904Z,25.70
2022-11-14T08:39:32.881Z,22.67
2022-11-14T08:42:04.076Z,23.67
2022-11-14T08:44:34.275Z,23.43
2022-11-14T08:47:04.079Z,24.03
2022-11-14T08:49:33.431Z,22.40
2022-11-14T08:52:02.706Z,25.30
2022-11-14T08:54:34.221Z,26.90
2022-11-14T08:57:06.660Z,24.70
2022-11-14T08:59:36.293Z,24.63
2022-11-14T09:02:05.896Z,24.77
2022-11-14T09:04:35.327Z,23.40
2022-11-14T09:07:05.177Z,25.73
2022-11-14T09:09:34.547Z,26.47
2022-11-14T09:12:06.271Z,26.47
2022-11-14T09:14:38.348Z,27.10
2022-11-14T09:17:07.632Z,25.73
2022-11-14T09:19:37.398Z,27.17
2022-11-14T09:22:06.717Z,25.10
2022-11-14T09:24:37.117Z,27.03
2022-11-14T09:27:08.306Z,26.20
2022-11-14T09:29:37.889Z,24.70
2022-11-14T09:32:09.643Z,26.77
2022-11-14T09:34:43.037Z,25.17
2022-11-14T09:37:12.594Z,23.57
2022-11-14T09:39:41.899Z,25.87
2022-11-14T09:42:24.351Z,26.90
2022-11-14T09:44:59.805Z,26.80
2022-11-14T09:47:32.190Z,25.43
2022-11-14T09:50:07.339Z,25.53
2022-11-14T09:52:39.288Z,26.07
2022-11-14T09:55:13.682Z,26.50
2022-11-14T09:57:47.160Z,29.13
2022-11-14T10:00:19.056Z,26.20
2022-11-14T10:03:11.094Z,27.93
2022-11-14T10:06:09.337Z,28.17
2022-11-14T10:08:49.544Z,26.70
2022-11-14T10:11:23.724Z,25.30
2022-11-14T10:14:29.111Z,27.33
2022-11-14T10:17:10.691Z,24.37
2022-11-14T10:19:43.981Z,24.03
2022-11-14T10:22:23.278Z,25.80
2022-11-14T10:25:09.102Z,26.67
2022-11-14T10:27:43.865Z,26.67
2022-11-14T10:30:16.788Z,27.37
2022-11-14T10:33:04.642Z,27.40
2022-11-14T10:35:37.914Z,26.67
2022-11-14T10:38:13.760Z,25.53
2022-11-14T10:40:44.668Z,24.87
2022-11-14T10:43:20.672Z,27.03
2022-11-14T10:45:54.047Z,30.03
2022-11-14T10:48:32.207Z,26.03
2022-11-14T10:51:04.725Z,25.80
2022-11-14T10:53:43.196Z,25.37
2022-11-14T10:56:14.853Z,25.43
2022-11-14T10:58:49.070Z,24.50
2022-11-14T11:01:38.595Z,25.23
2022-11-14T11:04:22.977Z,25.30
2022-11-14T11:06:53.853Z,23.83
2022-11-14T11:09:45.911Z,25.50
2022-11-14T11:12:19.333Z,23.40
2022-11-14T11:14:50.476Z,22.50
2022-11-14T11:17:29.591Z,21.67
2022-11-14T11:20:26.570Z,19.87
2022-11-14T11:23:05.320Z,20.90
2022-11-14T11:25:36.004Z,21.60
2022-11-14T11:28:12.918Z,20.30
2022-11-14T11:30:42.910Z,22.40
2022-11-14T11:33:25.255Z,22.77
2022-11-14T11:35:58.092Z,23.27
2022-11-14T11:38:30.700Z,23.73
2022-11-14T11:41:15.528Z,24.40
2022-11-14T11:43:58.854Z,19.43
2022-11-14T11:46:36.287Z,20.80
2022-11-14T11:49:13.416Z,19.50
2022-11-14T11:51:44.359Z,18.70
2022-11-14T11:54:17.361Z,20.20
2022-11-14T11:56:49.061Z,18.10
2022-11-14T11:59:28.971Z,19.03
2022-11-14T12:01:58.304Z,19.63
2022-11-14T12:04:29.442Z,19.60
2022-11-14T12:07:05.876Z,18.67
2022-11-14T12:10:08.615Z,18.90
2022-11-14T12:12:39.834Z,19.10
2022-11-14T12:15:19.324Z,21.00
2022-11-14T12:18:13.931Z,20.70
2022-11-14T12:20:53.247Z,23.00
2022-11-14T12:23:45.787Z,20.00
2022-11-14T12:26:30.391Z,23.70
2022-11-14T12:29:14.023Z,19.73
2022-11-14T12:31:43.701Z,21.93
2022-11-14T12:34:20.806Z,22.07
2022-11-14T12:36:51.969Z,18.33
2022-11-14T12:39:27.107Z,20.67
2022-11-14T12:42:04.748Z,18.30
2022-11-14T12:44:36.896Z,17.77
2022-11-14T12:47:20.902Z,19.60
2022-11-14T12:50:06.540Z,17.80
2022-11-14T12:52:51.288Z,18.13
2022-11-14T12:55:55.884Z,18.03
2022-11-14T12:58:32.042Z,20.40
2022-11-14T13:01:12.635Z,20.87
2022-11-14T13:03:52.068Z,17.63
2022-11-14T13:06:25.149Z,20.60
2022-11-14T13:09:30.436Z,20.60
2022-11-14T13:12:18.654Z,21.23
2022-11-14T13:15:09.703Z,21.47
2022-11-14T13:17:56.722Z,19.33
2022-11-14T13:20:49.399Z,19.37
2022-11-14T13:23:51.698Z,19.93
2022-11-14T13:26:42.680Z,21.30
2022-11-14T13:30:00.311Z,19.60
2022-11-14T13:33:10.910Z,20.60
2022-11-14T13:36:05.096Z,20.17
2022-11-14T13:38:54.793Z,23.47
2022-11-14T13:41:47.499Z,22.30
2022-11-14T13:44:48.655Z,21.97
2022-11-14T13:47:36.575Z,23.10
2022-11-14T13:50:09.400Z,23.00
2022-11-14T13:52:43.864Z,23.57
2022-11-14T13:55:22.572Z,24.23
2022-11-14T13:58:05.989Z,22.33
2022-11-14T14:00:52.435Z,21.20
2022-11-14T14:03:30.488Z,20.30
2022-11-14T14:06:22.823Z,20.43
2022-11-14T14:09:11.650Z,20.73
2022-11-14T14:11:59.780Z,20.53
2022-11-14T14:14:40.055Z,22.20
2022-11-14T14:17:13.166Z,22.80
2022-11-14T14:19:53.308Z,25.07
2022-11-14T14:22:30.015Z,23.33
2022-11-14T14:25:04.891Z,22.03
2022-11-14T14:27:40.883Z,23.70
2022-11-14T14:30:12.458Z,20.87
2022-11-14T14:32:41.819Z,22.57
2022-11-14T14:35:24.942Z,22.70
2022-11-14T14:37:57.035Z,21.40
2022-11-14T14:40:28.511Z,20.40
2022-11-14T14:42:58.592Z,21.30
2022-11-14T14:45:29.630Z,21.60
2022-11-14T14:48:04.250Z,23.57
2022-11-14T14:50:38.331Z,26.77
2022-11-14T14:53:09.774Z,25.20
2022-11-14T14:55:39.104Z,24.30
2022-11-14T14:58:25.016Z,23.70
2022-11-14T15:00:56.101Z,31.67
2022-11-14T15:03:25.852Z,24.77
2022-11-14T15:06:03.021Z,32.00
2022-11-14T15:08:37.570Z,29.90
2022-11-14T15:11:08.400Z,32.57
2022-11-14T15:13:39.340Z,33.60
2022-11-14T15:16:10.289Z,33.60
2022-11-14T15:18:40.270Z,32.30
2022-11-14T15:21:18.230Z,31.07
2022-11-14T15:23:48.904Z,32.83
2022-11-14T15:26:20.218Z,32.63
2022-11-14T15:28:50.815Z,34.37
2022-11-14T15:31:21.544Z,37.60
2022-11-14T15:34:03.937Z,34.20
2022-11-14T15:36:33.359Z,33.60
2022-11-14T15:39:22.715Z,36.40
2022-11-14T15:41:52.053Z,37.20
2022-11-14T15:44:33.476Z,37.90
2022-11-14T15:47:03.955Z,38.30
2022-11-14T15:49:34.085Z,38.90
2022-11-14T15:52:05.759Z,39.60
2022-11-14T15:54:39.531Z,39.50
2022-11-14T15:57:14.546Z,40.90
2022-11-14T15:59:44.266Z,37.50
2022-11-14T16:02:16.537Z,41.30
2022-11-14T16:04:47.966Z,39.90
2022-11-14T16:07:19.126Z,40.43
2022-11-14T16:09:50.530Z,39.73
2022-11-14T16:12:20.427Z,38.27
2022-11-14T16:14:50.235Z,41.10
2022-11-14T16:17:23.373Z,40.30
2022-11-14T16:19:52.704Z,39.10
2022-11-14T16:22:22.018Z,39.13
2022-11-14T16:24:55.475Z,39.10
2022-11-14T16:27:24.792Z,39.70
2022-11-14T16:29:54.173Z,42.20
2022-11-14T16:32:26.818Z,41.73
2022-11-14T16:34:57.021Z,39.50
2022-11-14T16:37:26.365Z,45.30
2022-11-14T16:39:57.361Z,42.93
2022-11-14T16:42:26.869Z,42.07
2022-11-14T16:45:02.221Z,41.73
2022-11-14T16:47:33.108Z,40.20
2022-11-14T16:50:02.832Z,39.67
2022-11-14T16:52:32.449Z,41.97
2022-11-14T16:55:03.802Z,41.77
2022-11-14T16:57:33.241Z,41.40
2022-11-14T17:00:03.061Z,40.03
2022-11-14T17:02:35.070Z,41.93
2022-11-14T17:05:04.852Z,40.80
2022-11-14T17:07:34.314Z,42.03
2022-11-14T17:10:05.675Z,46.77
2022-11-14T17:12:35.580Z,44.20
2022-11-14T17:15:05.674Z,45.67
2022-11-14T17:17:35.606Z,40.50
2022-11-14T17:20:07.459Z,44.77
2022-11-14T17:22:37.563Z,48.10
2022-11-14T17:25:09.662Z,45.27
2022-11-14T17:27:39.153Z,41.87
2022-11-14T17:30:11.214Z,42.43
2022-11-14T17:32:40.728Z,43.53
2022-11-14T17:35:11.204Z,42.20
2022-11-14T17:37:40.725Z,43.00
2022-11-14T17:40:15.684Z,40.13
2022-11-14T17:42:45.575Z,42.97
2022-11-14T17:45:14.965Z,39.70
2022-11-14T17:47:44.692Z,44.37
2022-11-14T17:50:14.223Z,43.80
2022-11-14T17:52:43.761Z,44.70
2022-11-14T17:55:14.862Z,41.03
2022-11-14T17:57:46.853Z,41.90
2022-11-14T18:00:17.660Z,47.37
2022-11-14T18:02:47.828Z,42.90
2022-11-14T18:05:25.352Z,46.30
2022-11-14T18:07:57.210Z,43.80
2022-11-14T18:10:28.101Z,43.13
2022-11-14T18:12:57.483Z,41.67
2022-11-14T18:15:28.343Z,43.43
2022-11-14T18:17:59.400Z,48.73
2022-11-14T18:20:29.247Z,45.37
2022-11-14T18:22:58.756Z,47.70
2022-11-14T18:25:31.557Z,46.43
2022-11-14T18:28:01.159Z,46.03
2022-11-14T18:30:46.018Z,47.97
2022-11-14T18:33:15.554Z,45.17
2022-11-14T18:35:45.329Z,47.23
2022-11-14T18:38:15.518Z,48.83
2022-11-14T18:40:47.053Z,46.27
2022-11-14T18:43:18.028Z,46.60
2022-11-14T18:45:47.810Z,43.73
2022-11-14T18:48:17.612Z,48.63
2022-11-14T18:50:51.423Z,49.70
2022-11-14T18:53:21.980Z,48.60
2022-11-14T18:55:53.780Z,45.33
2022-11-14T18:58:23.452Z,45.63
2022-11-14T19:00:52.487Z,47.03
2022-11-14T19:03:22.115Z,49.00
2022-11-14T19:05:51.683Z,48.17
2022-11-14T19:08:21.036Z,46.70
2022-11-14T19:10:54.160Z,48.10
2022-11-14T19:13:26.121Z,44.27
2022-11-14T19:15:56.014Z,48.77
2022-11-14T19:18:26.871Z,48.40
2022-11-14T19:21:00.730Z,45.80
2022-11-14T19:23:31.492Z,47.87
2022-11-14T19:26:04.074Z,49.43
2022-11-14T19:28:34.572Z,47.80
2022-11-14T19:31:04.401Z,48.40
2022-11-14T19:37:00.025Z,50.87
2022-11-14T19:39:33.003Z,46.03
2022-11-14T19:42:03.806Z,46.53
2022-11-14T19:44:33.277Z,45.77
2022-11-14T19:47:04.066Z,47.93
2022-11-14T19:49:33.782Z,46.97
2022-11-14T19:52:03.837Z,46.23
2022-11-14T19:54:34.808Z,47.17
2022-11-14T19:57:06.098Z,47.40
2022-11-14T19:59:35.843Z,46.93
2022-11-14T20:02:05.502Z,46.93
2022-11-14T20:04:38.007Z,47.30
2022-11-14T20:07:08.498Z,48.13
2022-11-14T20:09:39.236Z,48.87
2022-11-14T20:12:10.426Z,46.73
2022-11-14T20:14:40.509Z,45.40
2022-11-14T20:17:10.835Z,49.03
2022-11-14T20:19:43.558Z,43.27
2022-11-14T20:22:13.235Z,42.70
2022-11-14T20:24:44.086Z,44.20
2022-11-14T20:27:15.876Z,45.50
2022-11-14T20:29:47.295Z,44.93
2022-11-14T20:32:17.005Z,45.70
2022-11-14T20:34:46.647Z,46.47
2022-11-14T20:37:17.864Z,48.57
2022-11-14T20:39:47.154Z,48.10
2022-11-14T20:42:18.451Z,47.37
2022-11-14T20:44:48.354Z,45.57
2022-11-14T20:47:18.596Z,43.27
2022-11-14T20:49:48.106Z,43.73
2022-11-14T20:52:18.792Z,46.27
2022-11-14T20:54:48.384Z,50.20
2022-11-14T20:57:20.144Z,46.17
2022-11-14T20:59:50.176Z,53.30
2022-11-14T21:02:20.881Z,49.13
2022-11-14T21:04:51.665Z,50.73
2022-11-14T21:07:23.613Z,47.93
2022-11-14T21:10:14.454Z,47.80
2022-11-14T21:13:06.393Z,49.13
2022-11-14T21:15:36.686Z,46.30
2022-11-14T21:18:06.786Z,47.53
2022-11-14T21:20:36.557Z,44.97
2022-11-14T21:23:05.863Z,45.17
2022-11-14T21:25:35.630Z,46.00
2022-11-14T21:28:24.483Z,46.70
2022-11-14T21:30:58.783Z,46.93
2022-11-14T21:33:30.169Z,46.37
2022-11-14T21:36:16.562Z,47.03
2022-11-14T21:38:53.055Z,46.67
2022-11-14T21:41:24.061Z,45.27
2022-11-14T21:43:57.126Z,44.57
2022-11-14T21:46:27.013Z,47.00
2022-11-14T21:48:57.439Z,45.70
2022-11-14T21:51:29.637Z,49.20
2022-11-14T21:54:00.012Z,50.07
2022-11-14T21:56:31.145Z,49.20
2022-11-14T21:59:15.872Z,51.77
2022-11-14T22:02:10.148Z,49.50
2022-11-14T22:04:40.468Z,45.57
2022-11-14T22:07:10.602Z,46.30
2022-11-14T22:09:45.085Z,45.20
2022-11-14T22:12:14.895Z,46.70
2022-11-14T22:14:46.618Z,51.37
2022-11-14T22:17:16.029Z,47.80
2022-11-14T22:19:45.935Z,48.43
2022-11-14T22:22:15.210Z,48.70
2022-11-14T22:24:45.364Z,47.97
2022-11-14T22:27:15.020Z,50.87
2022-11-14T22:29:45.930Z,48.33
2022-11-14T22:32:15.613Z,50.30
2022-11-14T22:34:45.123Z,49.73
2022-11-14T22:37:14.459Z,51.00
2022-11-14T22:39:43.964Z,49.57
2022-11-14T22:42:13.841Z,46.90
2022-11-14T22:44:43.139Z,53.20
2022-11-14T22:47:14.219Z,48.07
2022-11-14T22:49:44.157Z,46.90
2022-11-14T22:52:13.855Z,47.47
2022-11-14T22:54:43.383Z,46.47
2022-11-14T22:57:12.463Z,45.10
2022-11-14T22:59:42.062Z,50.40
2022-11-14T23:02:12.992Z,48.60
2022-11-14T23:04:42.581Z,49.73
2022-11-14T23:07:12.160Z,50.47
2022-11-14T23:09:43.713Z,47.00
2022-11-14T23:12:15.790Z,49.90
2022-11-14T23:14:45.569Z,48.90
2022-11-14T23:17:19.538Z,50.13
2022-11-14T23:19:49.100Z,48.40
2022-11-14T23:22:19.012Z,49.07
2022-11-14T23:24:50.275Z,51.10
2022-11-14T23:27:19.876Z,50.20
2022-11-14T23:29:50.501Z,49.87
2022-11-14T23:32:21.735Z,49.10
2022-11-14T23:34:51.231Z,50.00
2022-11-14T23:37:22.899Z,48.50
2022-11-14T23:39:52.507Z,48.97
2022-11-14T23:42:22.159Z,47.80
2022-11-14T23:44:51.662Z,45.37
2022-11-14T23:47:22.567Z,46.93
2022-11-14T23:49:52.250Z,49.13
2022-11-14T23:52:22.343Z,49.60
2022-11-14T23:54:51.758Z,47.67
2022-11-14T23:57:21.988Z,54.07
2022-11-14T23:59:52.321Z,47.73
